createdAt,value
2023-04-08T00:00:54.008Z,19.25
2023-04-08T00:03:21.848Z,19.25
2023-04-08T00:05:49.400Z,20.15
2023-04-08T00:08:16.771Z,20.27
2023-04-08T00:10:44.418Z,20.30
2023-04-08T00:13:11.853Z,19.73
2023-04-08T00:15:39.216Z,19.67
2023-04-08T00:18:07.530Z,20.23
2023-04-08T00:20:35.113Z,19.70
2023-04-08T00:23:02.627Z,20.33
2023-04-08T00:25:31.329Z,20.12
2023-04-08T00:27:58.728Z,20.88
2023-04-08T00:30:28.108Z,20.90
2023-04-08T00:32:56.053Z,21.70
2023-04-08T00:35:23.589Z,20.05
2023-04-08T00:37:51.150Z,19.77
2023-04-08T00:40:18.931Z,20.30
2023-04-08T00:42:46.565Z,20.20
2023-04-08T00:45:14.298Z,21.02
2023-04-08T00:47:42.168Z,19.87
2023-04-08T00:50:10.824Z,20.50
2023-04-08T00:52:38.245Z,20.35
2023-04-08T00:55:06.585Z,19.27
2023-04-08T00:57:34.289Z,19.90
2023-04-08T01:00:01.735Z,19.83
2023-04-08T01:02:37.056Z,18.45
2023-04-08T01:05:13.094Z,19.27
2023-04-08T01:07:49.936Z,18.75
2023-04-08T01:10:21.328Z,20.15
2023-04-08T01:12:55.820Z,19.75
2023-04-08T01:15:25.403Z,19.10
2023-04-08T01:17:57.478Z,19.45
2023-04-08T01:20:28.757Z,18.17
2023-04-08T01:23:12.058Z,18.77
2023-04-08T01:25:39.680Z,20.45
2023-04-08T01:28:10.227Z,18.40
2023-04-08T01:30:41.437Z,20.05
2023-04-08T01:33:12.809Z,19.37
2023-04-08T01:35:40.367Z,17.65
2023-04-08T01:38:09.506Z,17.83
2023-04-08T01:40:39.102Z,18.67
2023-04-08T01:43:10.215Z,18.60
2023-04-08T01:48:07.128Z,17.70
2023-04-08T01:50:35.207Z,18.60
2023-04-08T01:53:04.761Z,18.80
2023-04-08T01:55:33.496Z,18.08
2023-04-08T01:58:01.661Z,18.45
2023-04-08T02:00:30.785Z,19.05
2023-04-08T02:03:00.166Z,18.50
2023-04-08T02:05:27.815Z,18.98
2023-04-08T02:07:55.350Z,19.40
2023-04-08T02:10:23.003Z,19.55
2023-04-08T02:12:50.444Z,19.42
2023-04-08T02:15:18.264Z,20.48
2023-04-08T02:17:53.166Z,21.65
2023-04-08T02:20:30.458Z,18.65
2023-04-08T02:23:08.412Z,21.08
2023-04-08T02:25:39.186Z,19.25
2023-04-08T02:28:10.253Z,19.33
2023-04-08T02:30:42.269Z,20.15
2023-04-08T02:33:10.817Z,19.98
2023-04-08T02:35:40.582Z,20.08
2023-04-08T02:38:10.834Z,20.37
2023-04-08T02:40:38.630Z,20.35
2023-04-08T02:43:06.518Z,20.30
2023-04-08T02:45:44.023Z,19.90
2023-04-08T02:48:11.928Z,19.80
2023-04-08T02:50:40.645Z,18.25
2023-04-08T02:53:09.070Z,20.80
2023-04-08T02:55:37.877Z,19.95
2023-04-08T02:58:05.346Z,19.80
2023-04-08T03:00:32.746Z,19.62
2023-04-08T03:03:01.087Z,18.35
2023-04-08T03:05:28.594Z,19.27
2023-04-08T03:07:56.029Z,18.48
2023-04-08T03:10:23.796Z,18.87
2023-04-08T03:12:51.288Z,19.27
2023-04-08T03:15:18.736Z,18.25
2023-04-08T03:17:46.796Z,18.27
2023-04-08T03:20:14.205Z,19.33
2023-04-08T03:22:41.603Z,19.58
2023-04-08T03:25:09.639Z,19.27
2023-04-08T03:27:37.333Z,18.65
2023-04-08T03:30:05.367Z,19.42
2023-04-08T03:32:33.331Z,18.10
2023-04-08T03:35:00.823Z,19.45
2023-04-08T03:37:28.243Z,19.50
2023-04-08T03:39:56.143Z,18.80
2023-04-08T03:42:23.723Z,19.20
2023-04-08T03:44:51.094Z,19.05
2023-04-08T03:47:18.849Z,18.35
2023-04-08T03:49:46.518Z,19.20
2023-04-08T03:52:13.869Z,18.42
2023-04-08T03:54:41.550Z,18.00
2023-04-08T03:57:08.914Z,18.70
2023-04-08T03:59:36.814Z,17.25
2023-04-08T04:02:04.621Z,17.05
2023-04-08T04:04:32.559Z,17.80
2023-04-08T04:07:00.023Z,18.00
2023-04-08T04:09:27.533Z,17.77
2023-04-08T04:11:55.191Z,18.05
2023-04-08T04:14:22.537Z,18.33
2023-04-08T04:16:49.943Z,17.98
2023-04-08T04:19:18.488Z,17.33
2023-04-08T04:21:45.884Z,17.65
2023-04-08T04:24:14.100Z,17.77
2023-04-08T04:26:42.089Z,16.98
2023-04-08T04:29:09.697Z,17.40
2023-04-08T04:31:37.414Z,17.20
2023-04-08T04:34:05.756Z,18.35
2023-04-08T04:36:33.367Z,16.60
2023-04-08T04:39:01.439Z,17.10
2023-04-08T04:41:29.120Z,18.00
2023-04-08T04:43:56.549Z,17.50
2023-04-08T04:46:24.317Z,16.77
2023-04-08T04:48:52.333Z,17.65
2023-04-08T04:51:19.940Z,16.10
2023-04-08T04:53:48.171Z,16.83
2023-04-08T04:56:16.075Z,17.77
2023-04-08T04:58:43.499Z,17.05
2023-04-08T05:01:10.967Z,17.65
2023-04-08T05:03:38.718Z,17.85
2023-04-08T05:06:06.461Z,16.62
2023-04-08T05:08:33.871Z,17.05
2023-04-08T05:11:02.309Z,17.00
2023-04-08T05:13:29.927Z,16.55
2023-04-08T05:15:57.599Z,16.62
2023-04-08T05:18:25.686Z,15.63
2023-04-08T05:20:53.172Z,15.38
2023-04-08T05:23:20.645Z,14.75
2023-04-08T05:25:48.337Z,15.70
2023-04-08T05:28:15.921Z,15.30
2023-04-08T05:30:43.314Z,15.32
2023-04-08T05:33:11.092Z,13.45
2023-04-08T05:35:38.577Z,13.90
2023-04-08T05:38:06.704Z,13.00
2023-04-08T05:40:34.456Z,14.00
2023-04-08T05:43:01.865Z,12.93
2023-04-08T05:45:29.724Z,12.85
2023-04-08T05:47:57.427Z,11.85
2023-04-08T05:50:24.968Z,11.77
2023-04-08T05:52:52.347Z,12.52
2023-04-08T05:55:20.041Z,12.02
2023-04-08T05:57:47.452Z,11.98
2023-04-08T06:00:15.045Z,12.88
2023-04-08T06:02:43.032Z,11.93
2023-04-08T06:05:10.713Z,12.20
2023-04-08T06:07:38.083Z,11.50
2023-04-08T06:10:07.234Z,11.82
2023-04-08T06:12:40.733Z,11.85
2023-04-08T06:15:09.489Z,11.73
2023-04-08T06:17:37.625Z,12.13
2023-04-08T06:20:06.769Z,11.38
2023-04-08T06:22:34.546Z,11.82
2023-04-08T06:25:02.431Z,11.32
2023-04-08T06:27:30.033Z,11.15
2023-04-08T06:29:58.034Z,11.40
2023-04-08T06:32:25.431Z,10.43
2023-04-08T06:34:52.811Z,10.93
2023-04-08T06:37:20.898Z,11.18
2023-04-08T06:39:48.310Z,10.68
2023-04-08T06:42:15.819Z,10.20
2023-04-08T06:44:44.542Z,11.10
2023-04-08T06:47:11.981Z,10.38
2023-04-08T06:49:39.450Z,10.35
2023-04-08T06:52:08.125Z,10.70
2023-04-08T06:54:35.893Z,10.70
2023-04-08T06:57:04.224Z,11.27
2023-04-08T06:59:31.890Z,11.25
2023-04-08T07:01:59.374Z,10.98
2023-04-08T07:04:26.966Z,11.82
2023-04-08T07:06:54.867Z,11.43
2023-04-08T07:09:22.312Z,12.68
2023-04-08T07:11:49.754Z,12.37
2023-04-08T07:14:17.411Z,11.85
2023-04-08T07:16:44.839Z,11.82
2023-04-08T07:19:12.615Z,12.82
2023-04-08T07:21:40.311Z,13.43
2023-04-08T07:24:07.695Z,11.52
2023-04-08T07:26:35.322Z,12.07
2023-04-08T07:29:03.090Z,10.45
2023-04-08T07:31:30.595Z,11.20
2023-04-08T07:33:58.273Z,10.55
2023-04-08T07:36:26.446Z,10.77
2023-04-08T07:38:53.997Z,21.37
2023-04-08T07:41:21.675Z,15.75
2023-04-08T07:43:49.357Z,11.73
2023-04-08T07:46:16.761Z,10.50
2023-04-08T07:48:44.219Z,11.30
2023-04-08T07:51:12.051Z,10.80
2023-04-08T07:53:40.469Z,10.93
2023-04-08T07:56:12.484Z,11.75
2023-04-08T08:01:22.361Z,10.25
2023-04-08T08:03:52.146Z,10.52
2023-04-08T08:06:20.793Z,9.90
2023-04-08T08:08:48.594Z,10.95
2023-04-08T08:11:16.296Z,10.35
2023-04-08T08:13:43.679Z,11.75
2023-04-08T08:16:12.082Z,11.45
2023-04-08T08:18:41.045Z,10.45
2023-04-08T08:21:08.931Z,10.93
2023-04-08T08:23:37.488Z,10.27
2023-04-08T08:26:07.595Z,10.02
2023-04-08T08:28:35.523Z,11.68
2023-04-08T08:31:03.635Z,10.98
2023-04-08T08:33:31.914Z,10.45
2023-04-08T08:36:00.219Z,10.23
2023-04-08T08:38:27.680Z,9.77
2023-04-08T08:40:56.398Z,9.30
2023-04-08T08:43:24.884Z,10.02
2023-04-08T08:45:52.536Z,12.90
2023-04-08T08:48:20.606Z,10.25
2023-04-08T08:50:48.111Z,10.20
2023-04-08T08:53:16.172Z,11.43
2023-04-08T08:56:13.730Z,9.63
2023-04-08T08:58:32.263Z,9.30
2023-04-08T09:00:59.938Z,10.35
2023-04-08T09:03:28.985Z,11.18
2023-04-08T09:06:01.313Z,10.40
2023-04-08T09:08:33.201Z,10.60
2023-04-08T09:11:23.330Z,11.77
2023-04-08T09:13:51.179Z,12.88
2023-04-08T09:16:20.251Z,10.50
2023-04-08T09:18:49.425Z,10.88
2023-04-08T09:21:18.319Z,10.73
2023-04-08T09:23:46.758Z,10.00
2023-04-08T09:26:22.342Z,10.10
2023-04-08T09:29:02.437Z,9.68
2023-04-08T09:31:41.009Z,10.50
2023-04-08T09:34:20.828Z,9.60
2023-04-08T09:36:49.229Z,10.70
2023-04-08T09:39:17.073Z,10.88
2023-04-08T09:41:44.842Z,11.15
2023-04-08T09:44:12.534Z,10.88
2023-04-08T09:46:51.758Z,10.75
2023-04-08T09:49:36.963Z,12.77
2023-04-08T09:52:41.800Z,12.05
2023-04-08T09:55:09.594Z,11.77
2023-04-08T09:57:37.451Z,12.30
2023-04-08T10:00:10.340Z,12.50
2023-04-08T10:02:44.106Z,12.13
2023-04-08T10:05:14.558Z,12.63
2023-04-08T10:07:42.396Z,14.02
2023-04-08T10:10:11.892Z,13.27
2023-04-08T10:12:40.309Z,13.32
2023-04-08T10:15:27.258Z,12.45
2023-04-08T10:18:18.348Z,12.30
2023-04-08T10:20:49.338Z,12.27
2023-04-08T10:23:18.425Z,11.68
2023-04-08T10:25:49.380Z,10.90
2023-04-08T10:28:19.680Z,10.73
2023-04-08T10:30:50.880Z,11.77
2023-04-08T10:33:22.446Z,11.12
2023-04-08T10:36:12.128Z,12.30
2023-04-08T10:38:39.957Z,11.15
2023-04-08T10:41:07.465Z,11.35
2023-04-08T10:43:35.395Z,11.60
2023-04-08T10:46:04.759Z,11.45
2023-04-08T10:48:32.377Z,11.32
2023-04-08T10:51:06.692Z,11.27
2023-04-08T10:53:36.262Z,11.57
2023-04-08T10:56:15.493Z,11.73
2023-04-08T10:58:51.662Z,11.15
2023-04-08T11:01:19.784Z,10.95
2023-04-08T11:03:47.758Z,11.63
2023-04-08T11:06:15.540Z,10.23
2023-04-08T11:08:44.738Z,10.93
2023-04-08T11:11:12.602Z,10.55
2023-04-08T11:13:51.188Z,10.60
2023-04-08T11:16:24.135Z,10.73
2023-04-08T11:18:51.771Z,11.25
2023-04-08T11:21:19.494Z,11.90
2023-04-08T11:23:49.999Z,11.02
2023-04-08T11:26:17.760Z,11.02
2023-04-08T11:28:45.839Z,11.68
2023-04-08T11:31:13.705Z,12.37
2023-04-08T11:33:48.542Z,11.50
2023-04-08T11:36:18.734Z,11.68
2023-04-08T11:38:47.962Z,12.00
2023-04-08T11:41:16.376Z,10.95
2023-04-08T11:43:57.068Z,11.57
2023-04-08T11:46:25.419Z,11.05
2023-04-08T11:49:02.931Z,11.18
2023-04-08T11:51:30.726Z,12.82
2023-04-08T11:53:58.253Z,12.23
2023-04-08T11:56:25.674Z,11.80
2023-04-08T11:58:53.839Z,13.52
2023-04-08T12:01:21.718Z,13.77
2023-04-08T12:03:56.820Z,12.50
2023-04-08T12:06:25.000Z,13.88
2023-04-08T12:08:53.296Z,13.00
2023-04-08T12:11:20.971Z,13.15
2023-04-08T12:13:50.065Z,13.35
2023-04-08T12:16:18.777Z,13.52
2023-04-08T12:18:46.866Z,12.90
2023-04-08T12:21:14.619Z,13.73
2023-04-08T12:23:42.398Z,13.57
2023-04-08T12:26:09.831Z,12.45
2023-04-08T12:28:37.534Z,13.82
2023-04-08T12:31:05.478Z,13.10
2023-04-08T12:33:32.952Z,12.98
2023-04-08T12:36:00.684Z,12.15
2023-04-08T12:38:28.657Z,12.05
2023-04-08T12:40:57.040Z,11.80
2023-04-08T12:43:24.500Z,12.37
2023-04-08T12:45:52.256Z,11.95
2023-04-08T12:48:19.729Z,13.18
2023-04-08T12:50:47.156Z,11.65
2023-04-08T12:53:14.853Z,11.82
2023-04-08T12:55:44.441Z,11.45
2023-04-08T12:58:12.195Z,12.32
2023-04-08T13:00:40.191Z,12.05
2023-04-08T13:03:08.108Z,11.25
2023-04-08T13:05:43.107Z,11.98
2023-04-08T13:08:14.440Z,11.07
2023-04-08T13:10:42.111Z,11.73
2023-04-08T13:13:09.555Z,11.68
2023-04-08T13:15:37.946Z,11.70
2023-04-08T13:18:05.851Z,11.45
2023-04-08T13:20:33.701Z,8.23
2023-04-08T13:23:01.656Z,10.15
2023-04-08T13:25:29.082Z,10.82
2023-04-08T13:27:56.486Z,10.55
2023-04-08T13:30:24.205Z,13.70
2023-04-08T13:32:51.711Z,11.90
2023-04-08T13:35:19.146Z,10.45
2023-04-08T13:37:47.400Z,11.77
2023-04-08T13:40:14.820Z,10.63
2023-04-08T13:42:42.435Z,10.88
2023-04-08T13:45:10.340Z,10.75
2023-04-08T13:47:39.019Z,12.10
2023-04-08T13:50:07.590Z,13.23
2023-04-08T13:52:35.406Z,14.98
2023-04-08T13:55:02.800Z,10.70
2023-04-08T13:57:30.692Z,12.05
2023-04-08T13:59:58.353Z,11.38
2023-04-08T14:02:25.877Z,10.85
2023-04-08T14:04:53.960Z,10.75
2023-04-08T14:07:21.755Z,10.85
2023-04-08T14:09:49.174Z,13.62
2023-04-08T14:12:16.842Z,10.35
2023-04-08T14:14:44.239Z,10.25
2023-04-08T14:17:11.746Z,10.43
2023-04-08T14:19:39.482Z,9.90
2023-04-08T14:22:06.984Z,10.20
2023-04-08T14:24:34.644Z,9.27
2023-04-08T14:27:02.352Z,8.93
2023-04-08T14:29:29.761Z,22.73
2023-04-08T14:31:57.610Z,12.82
2023-04-08T14:34:25.746Z,10.48
2023-04-08T14:36:53.173Z,9.45
2023-04-08T14:39:20.521Z,10.30
2023-04-08T14:41:48.166Z,9.15
2023-04-08T14:44:15.888Z,9.52
2023-04-08T14:46:43.429Z,9.15
2023-04-08T14:49:11.238Z,9.30
2023-04-08T14:51:38.683Z,8.68
2023-04-08T14:54:06.238Z,7.68
2023-04-08T14:56:33.947Z,8.93
2023-04-08T14:59:01.372Z,9.70
2023-04-08T15:01:31.504Z,9.50
2023-04-08T15:03:59.739Z,11.82
2023-04-08T15:06:28.476Z,12.68
2023-04-08T15:08:56.519Z,11.18
2023-04-08T15:11:24.293Z,10.88
2023-04-08T15:13:52.116Z,10.90
2023-04-08T15:16:19.642Z,10.43
2023-04-08T15:18:47.395Z,10.77
2023-04-08T15:21:14.807Z,10.65
2023-04-08T15:23:43.523Z,10.27
2023-04-08T15:26:11.311Z,10.27
2023-04-08T15:28:40.381Z,10.05
2023-04-08T15:31:07.932Z,10.07
2023-04-08T15:33:39.010Z,10.80
2023-04-08T15:36:07.073Z,10.95
2023-04-08T15:38:34.794Z,11.23
2023-04-08T15:41:02.546Z,11.27
2023-04-08T15:43:30.433Z,10.75
2023-04-08T15:45:57.826Z,9.77
2023-04-08T15:48:25.603Z,9.10
2023-04-08T15:50:53.460Z,8.68
2023-04-08T15:53:20.909Z,7.37
2023-04-08T15:55:50.198Z,7.30
2023-04-08T15:58:17.883Z,6.15
2023-04-08T16:00:45.274Z,6.15
2023-04-08T16:03:13.294Z,6.25
2023-04-08T16:05:41.863Z,6.62
2023-04-08T16:08:10.030Z,7.43
2023-04-08T16:10:37.740Z,6.95
2023-04-08T16:13:05.369Z,7.62
2023-04-08T16:15:34.122Z,7.97
2023-04-08T16:18:03.221Z,7.60
2023-04-08T16:20:30.651Z,7.60
2023-04-08T16:22:58.075Z,8.23
2023-04-08T16:25:27.214Z,8.82
2023-04-08T16:27:55.836Z,8.73
2023-04-08T16:30:23.291Z,12.15
2023-04-08T16:32:51.017Z,12.40
2023-04-08T16:35:20.462Z,8.82
2023-04-08T16:37:48.154Z,8.45
2023-04-08T16:40:15.874Z,8.43
2023-04-08T16:42:43.302Z,8.77
2023-04-08T16:45:11.321Z,9.00
2023-04-08T16:47:41.604Z,9.50
2023-04-08T16:50:09.236Z,9.27
2023-04-08T16:52:36.681Z,9.63
2023-04-08T16:55:04.541Z,9.18
2023-04-08T16:57:31.944Z,10.30
2023-04-08T16:59:59.364Z,10.10
2023-04-08T17:02:27.500Z,10.02
2023-04-08T17:04:55.019Z,9.65
2023-04-08T17:07:22.533Z,8.18
2023-04-08T17:09:53.811Z,9.00
2023-04-08T17:12:21.253Z,10.15
2023-04-08T17:14:48.633Z,11.18
2023-04-08T17:17:16.603Z,9.05
2023-04-08T17:19:44.286Z,7.20
2023-04-08T17:22:12.071Z,7.00
2023-04-08T17:24:39.793Z,6.68
2023-04-08T17:27:07.160Z,6.57
2023-04-08T17:29:34.789Z,8.80
2023-04-08T17:32:02.626Z,8.68
2023-04-08T17:34:31.413Z,7.37
2023-04-08T17:36:58.909Z,6.82
2023-04-08T17:39:26.701Z,7.37
2023-04-08T17:41:54.168Z,6.95
2023-04-08T17:44:21.801Z,7.80
2023-04-08T17:46:49.542Z,16.33
2023-04-08T17:49:16.948Z,19.58
2023-04-08T17:51:44.315Z,16.52
2023-04-08T17:54:12.287Z,12.70
2023-04-08T17:56:39.949Z,11.90
2023-04-08T17:59:07.371Z,10.25
2023-04-08T18:01:37.171Z,10.50
2023-04-08T18:04:08.534Z,10.48
2023-04-08T18:06:36.209Z,9.35
2023-04-08T18:09:03.811Z,9.23
2023-04-08T18:11:31.561Z,9.60
2023-04-08T18:13:59.055Z,9.98
2023-04-08T18:16:26.539Z,9.70
2023-04-08T18:18:54.255Z,10.32
2023-04-08T18:21:22.180Z,9.93
2023-04-08T18:23:50.311Z,10.75
2023-04-08T18:26:18.290Z,11.02
2023-04-08T18:28:46.194Z,10.48
2023-04-08T18:31:13.665Z,10.35
2023-04-08T18:33:41.458Z,11.57
2023-04-08T18:36:10.172Z,12.45
2023-04-08T18:38:39.969Z,12.90
2023-04-08T18:41:08.523Z,12.25
2023-04-08T18:43:36.159Z,12.32
2023-04-08T18:46:04.774Z,11.15
2023-04-08T18:48:33.558Z,12.30
2023-04-08T18:51:01.982Z,11.15
2023-04-08T18:53:29.581Z,10.85
2023-04-08T18:55:57.258Z,11.85
2023-04-08T18:58:24.682Z,11.60
2023-04-08T19:00:52.311Z,9.95
2023-04-08T19:03:20.031Z,11.32
2023-04-08T19:05:47.593Z,10.07
2023-04-08T19:08:15.350Z,11.12
2023-04-08T19:10:43.045Z,11.65
2023-04-08T19:13:10.470Z,11.65
2023-04-08T19:15:38.045Z,10.73
2023-04-08T19:18:05.835Z,11.18
2023-04-08T19:20:33.696Z,10.80
2023-04-08T19:23:01.107Z,11.57
2023-04-08T19:25:28.784Z,12.27
2023-04-08T19:27:56.280Z,14.93
2023-04-08T19:30:23.954Z,15.32
2023-04-08T19:32:51.781Z,22.35
2023-04-08T19:35:19.253Z,25.85
2023-04-08T19:37:46.779Z,30.90
2023-04-08T19:40:14.439Z,31.40
2023-04-08T19:42:41.853Z,22.27
2023-04-08T19:45:10.853Z,29.25
2023-04-08T19:47:42.315Z,26.45
2023-04-08T19:50:10.877Z,23.85
2023-04-08T19:52:41.366Z,20.10
2023-04-08T19:55:10.298Z,18.23
2023-04-08T19:57:38.027Z,17.75
2023-04-08T20:00:05.992Z,17.60
2023-04-08T20:02:34.215Z,16.60
2023-04-08T20:05:02.294Z,18.55
2023-04-08T20:07:29.830Z,17.70
2023-04-08T20:09:57.428Z,19.08
2023-04-08T20:12:25.294Z,17.75
2023-04-08T20:14:52.835Z,17.37
2023-04-08T20:17:20.859Z,17.25
2023-04-08T20:19:48.549Z,16.90
2023-04-08T20:22:15.945Z,18.02
2023-04-08T20:24:43.325Z,21.85
2023-04-08T20:27:11.142Z,20.00
2023-04-08T20:29:38.577Z,17.90
2023-04-08T20:32:06.026Z,18.37
2023-04-08T20:34:33.724Z,17.27
2023-04-08T20:37:01.170Z,17.87
2023-04-08T20:39:31.945Z,15.80
2023-04-08T20:41:59.740Z,15.02
2023-04-08T20:44:27.821Z,14.10
2023-04-08T20:46:55.313Z,14.07
2023-04-08T20:49:23.014Z,14.55
2023-04-08T20:51:50.525Z,14.30
2023-04-08T20:54:18.551Z,14.15
2023-04-08T20:56:46.385Z,14.85
2023-04-08T20:59:13.783Z,16.30
2023-04-08T21:01:41.260Z,14.63
2023-04-08T21:04:08.977Z,14.07
2023-04-08T21:06:37.599Z,15.27
2023-04-08T21:09:05.275Z,14.57
2023-04-08T21:11:33.109Z,13.93
2023-04-08T21:14:00.872Z,14.57
2023-04-08T21:16:29.235Z,13.55
2023-04-08T21:18:59.163Z,13.70
2023-04-08T21:21:27.590Z,13.95
2023-04-08T21:23:55.040Z,13.25
2023-04-08T21:26:22.946Z,12.70
2023-04-08T21:28:51.071Z,12.48
2023-04-08T21:31:18.741Z,11.35
2023-04-08T21:33:46.484Z,12.60
2023-04-08T21:36:13.943Z,14.13
2023-04-08T21:38:42.168Z,14.85
2023-04-08T21:41:09.839Z,15.57
2023-04-08T21:43:37.303Z,15.23
2023-04-08T21:46:04.953Z,13.95
2023-04-08T21:48:32.674Z,12.75
2023-04-08T21:51:01.048Z,12.48
2023-04-08T21:53:28.900Z,12.15
2023-04-08T21:55:56.625Z,12.13
2023-04-08T21:58:24.230Z,11.35
2023-04-08T22:00:53.054Z,12.43
2023-04-08T22:03:20.778Z,13.02
2023-04-08T22:05:48.216Z,12.93
2023-04-08T22:08:16.208Z,12.32
2023-04-08T22:10:43.886Z,14.13
2023-04-08T22:13:11.552Z,12.77
2023-04-08T22:15:38.941Z,11.93
2023-04-08T22:18:07.095Z,12.48
2023-04-08T22:20:34.568Z,11.52
2023-04-08T22:23:02.001Z,11.90
2023-04-08T22:25:29.767Z,11.48
2023-04-08T22:27:57.352Z,12.98
2023-04-08T22:30:24.831Z,13.05
2023-04-08T22:32:52.643Z,13.98
2023-04-08T22:35:20.139Z,14.68
2023-04-08T22:37:47.522Z,13.88
2023-04-08T22:40:15.455Z,13.90
2023-04-08T22:42:42.961Z,14.43
2023-04-08T22:45:10.907Z,12.02
2023-04-08T22:47:38.632Z,12.25
2023-04-08T22:50:06.534Z,11.65
2023-04-08T22:52:33.974Z,11.45
2023-04-08T22:55:01.721Z,10.68
2023-04-08T22:57:29.194Z,11.88
2023-04-08T22:59:56.588Z,12.10
2023-04-08T23:02:24.306Z,11.25
2023-04-08T23:04:56.059Z,11.25
2023-04-08T23:07:24.227Z,11.48
2023-04-08T23:09:51.652Z,11.77
2023-04-08T23:12:19.079Z,12.82
2023-04-08T23:14:47.063Z,11.12
2023-04-08T23:17:14.498Z,10.25
2023-04-08T23:19:42.395Z,10.27
2023-04-08T23:22:10.074Z,11.88
2023-04-08T23:24:37.485Z,10.98
2023-04-08T23:27:04.878Z,10.60
2023-04-08T23:29:32.625Z,10.77
2023-04-08T23:32:00.286Z,10.25
2023-04-08T23:34:27.946Z,10.27
2023-04-08T23:36:55.691Z,11.10
2023-04-08T23:39:23.063Z,11.00
2023-04-08T23:41:50.497Z,10.13
2023-04-08T23:44:18.133Z,10.63
2023-04-08T23:46:45.659Z,11.20
2023-04-08T23:49:13.130Z,11.18
2023-04-08T23:51:40.964Z,10.50
2023-04-08T23:54:08.387Z,9.63
2023-04-08T23:56:35.751Z,10.50
2023-04-08T23:59:03.398Z,10.48
